Time;durP1;ratioP1;P1;durP2;ratioP2;P2;SDS_P1;SDS_P2;PMS_P1;PMS_P2;Temp;Humidity;BMP_temperature;BMP_pressure;BME280_temperature;BME280_humidity;BME280_pressure;Samples;Min_cycle;Max_cycle;Signal;HPM_P1;HPM_P2
2023/10/26 00:01:05;;;;;;;55.33;8.60;;;;;;;16.32;87.14;94414.84;5015416;28;20133;-77
2023/10/26 00:03:31;;;;;;;51.88;8.60;;;;;;;16.40;86.57;94416.69;5016310;28;20038;-78
2023/10/26 00:05:56;;;;;;;52.33;8.43;;;;;;;16.24;85.98;94415.72;5016373;28;20044;-78
2023/10/26 00:08:22;;;;;;;52.05;8.55;;;;;;;16.18;86.08;94413.22;5020824;28;20496;-77
2023/10/26 00:10:47;;;;;;;40.92;8.05;;;;;;;16.12;86.37;94397.69;5014929;28;20044;-78
2023/10/26 00:13:12;;;;;;;51.92;9.02;;;;;;;16.17;86.09;94413.56;5014305;28;20409;-77
2023/10/26 00:15:38;;;;;;;50.90;9.05;;;;;;;15.92;86.60;94412.63;5016180;28;20034;-78
2023/10/26 00:18:03;;;;;;;54.45;9.23;;;;;;;15.74;86.58;94406.59;5014530;28;20026;-77
2023/10/26 00:20:30;;;;;;;53.80;8.50;;;;;;;15.90;86.96;94403.34;5015796;28;20039;-77
2023/10/26 00:22:55;;;;;;;48.60;8.55;;;;;;;16.10;87.11;94415.94;5015786;28;20096;-77
2023/10/26 00:25:21;;;;;;;47.30;7.15;;;;;;;15.97;86.89;94407.09;5019708;28;20492;-78
2023/10/26 00:27:46;;;;;;;44.22;7.53;;;;;;;15.82;87.71;94394.28;5033817;28;20534;-77
2023/10/26 00:30:12;;;;;;;42.50;7.45;;;;;;;15.89;87.24;94391.88;5039590;28;20064;-78
2023/10/26 00:32:38;;;;;;;43.08;7.68;;;;;;;15.97;87.71;94417.00;5033413;28;20047;-78
2023/10/26 00:35:03;;;;;;;50.20;8.57;;;;;;;15.81;88.10;94420.25;5032594;28;20041;-77
2023/10/26 00:37:30;;;;;;;40.78;7.07;;;;;;;15.68;88.18;94375.03;5032716;28;20112;-77
2023/10/26 00:39:55;;;;;;;38.55;8.23;;;;;;;15.93;87.90;94414.19;5033492;28;20033;-77
2023/10/26 00:42:21;;;;;;;50.78;9.98;;;;;;;15.94;88.06;94402.41;5032836;28;20219;-78
2023/10/26 00:44:46;;;;;;;28.80;7.57;;;;;;;15.56;87.77;94337.56;5032636;28;20037;-78
2023/10/26 00:47:14;;;;;;;45.85;7.97;;;;;;;15.92;87.82;94409.97;5033970;28;20033;-78
2023/10/26 00:49:43;;;;;;;47.28;8.35;;;;;;;16.02;87.60;94414.91;5032346;28;20071;-77
2023/10/26 00:52:11;;;;;;;36.13;6.70;;;;;;;16.02;87.50;94411.47;5038683;28;20040;-77
2023/10/26 00:54:40;;;;;;;46.53;7.13;;;;;;;15.98;86.99;94419.34;5036552;28;20091;-77
2023/10/26 00:57:06;;;;;;;45.60;7.55;;;;;;;15.68;87.01;94383.06;5033133;28;20571;-78
2023/10/26 00:59:32;;;;;;;39.13;7.10;;;;;;;15.92;86.59;94403.81;5014319;28;20050;-77
2023/10/26 01:02:01;;;;;;;46.75;5.75;;;;;;;15.65;86.98;94387.16;5018233;28;20033;-77
2023/10/26 01:04:26;;;;;;;46.60;6.82;;;;;;;15.97;87.44;94411.66;5033992;28;20457;-77
2023/10/26 01:06:52;;;;;;;32.38;6.78;;;;;;;15.98;87.09;94405.97;5033263;28;20030;-77
2023/10/26 01:09:17;;;;;;;34.33;8.80;;;;;;;16.09;87.20;94415.19;5035405;28;20045;-78
2023/10/26 01:11:44;;;;;;;41.47;7.32;;;;;;;15.79;86.31;94402.97;5033646;28;20440;-78
2023/10/26 01:14:09;;;;;;;35.25;6.50;;;;;;;15.77;86.15;94405.19;5034108;28;20045;-77
2023/10/26 01:16:35;;;;;;;34.80;6.65;;;;;;;15.62;86.06;94360.31;5033597;28;20044;-77
2023/10/26 01:19:02;;;;;;;42.20;6.40;;;;;;;15.88;86.29;94389.53;5036140;28;20523;-78
2023/10/26 01:21:28;;;;;;;38.72;7.70;;;;;;;15.79;85.52;94394.97;5033549;28;20037;-78
2023/10/26 01:23:54;;;;;;;45.22;8.52;;;;;;;15.70;85.55;94383.53;5035690;28;20029;-78
2023/10/26 01:26:19;;;;;;;34.95;6.30;;;;;;;15.73;85.81;94364.16;5033114;28;20116;-78
2023/10/26 01:28:45;;;;;;;40.38;6.75;;;;;;;15.79;85.81;94384.25;5035520;28;20033;-78
2023/10/26 01:31:18;;;;;;;32.75;6.03;;;;;;;15.91;85.62;94400.38;5031224;28;20054;-77
2023/10/26 01:33:44;;;;;;;42.53;7.03;;;;;;;15.68;84.76;94361.69;5014912;28;20022;-77
2023/10/26 01:36:10;;;;;;;32.17;5.55;;;;;;;15.80;85.44;94389.25;5017200;28;20413;-77
2023/10/26 01:38:36;;;;;;;28.90;6.25;;;;;;;15.60;85.05;94402.59;5031883;28;20037;-77
2023/10/26 01:41:02;;;;;;;29.70;5.63;;;;;;;15.52;85.87;94404.19;5016229;28;20479;-77
2023/10/26 01:43:29;;;;;;;26.13;6.25;;;;;;;15.51;86.42;94367.09;5014830;28;20087;-78
2023/10/26 01:45:55;;;;;;;30.02;6.00;;;;;;;15.56;85.71;94402.47;5015091;28;20041;-78
2023/10/26 01:48:22;;;;;;;33.88;6.15;;;;;;;15.68;85.75;94407.91;5041485;28;20037;-77
2023/10/26 01:50:47;;;;;;;37.78;7.00;;;;;;;15.40;85.85;94367.47;5033215;28;20025;-77
2023/10/26 01:53:13;;;;;;;45.63;8.23;;;;;;;15.51;86.62;94391.94;5030640;28;20044;-77
2023/10/26 01:55:38;;;;;;;37.83;5.57;;;;;;;15.57;86.61;94398.69;5031440;28;20087;-77
2023/10/26 01:58:04;;;;;;;46.22;7.95;;;;;;;15.49;86.06;94393.34;5025478;28;20064;-77
2023/10/26 02:00:29;;;;;;;31.23;5.72;;;;;;;15.32;86.14;94403.03;5009666;28;20053;-78
2023/10/26 02:02:55;;;;;;;44.47;5.97;;;;;;;15.48;86.59;94399.81;5029033;28;20172;-77
2023/10/26 02:05:21;;;;;;;21.80;5.88;;;;;;;15.48;86.21;94415.84;5026412;28;20628;-77
2023/10/26 02:07:46;;;;;;;30.75;6.55;;;;;;;15.34;85.94;94394.69;5010917;28;20035;-77
2023/10/26 02:10:14;;;;;;;29.65;6.13;;;;;;;15.53;86.42;94395.09;5014102;28;20029;-77
2023/10/26 02:12:39;;;;;;;29.38;5.43;;;;;;;15.40;85.71;94396.88;5029596;28;20060;-77
2023/10/26 02:15:05;;;;;;;30.05;5.90;;;;;;;15.16;85.33;94350.47;5028848;28;20029;-77
2023/10/26 02:17:31;;;;;;;31.88;5.97;;;;;;;15.29;86.13;94394.88;5029764;28;20032;-77
2023/10/26 02:19:56;;;;;;;44.03;6.55;;;;;;;15.13;85.87;94369.81;5029406;28;20097;-78
2023/10/26 02:22:22;;;;;;;25.58;5.18;;;;;;;14.99;86.56;94325.41;5029449;28;20116;-77
2023/10/26 02:24:47;;;;;;;42.55;7.63;;;;;;;15.43;86.52;94388.19;5029968;28;20411;-77
2023/10/26 02:27:13;;;;;;;29.42;5.65;;;;;;;15.29;86.50;94403.66;5029303;28;20552;-77
2023/10/26 02:29:39;;;;;;;28.55;5.45;;;;;;;15.05;86.84;94401.56;5025245;28;20029;-77
2023/10/26 02:32:05;;;;;;;35.22;6.40;;;;;;;15.17;87.29;94379.53;5009898;28;20026;-77
2023/10/26 02:34:31;;;;;;;32.60;6.10;;;;;;;15.03;87.50;94395.75;5028053;28;20029;-77
2023/10/26 02:36:57;;;;;;;36.85;6.72;;;;;;;14.83;88.80;94364.41;5027211;28;20600;-77
2023/10/26 02:39:22;;;;;;;35.72;7.10;;;;;;;14.88;88.64;94377.59;5009382;28;20132;-77
2023/10/26 02:41:48;;;;;;;33.65;6.22;;;;;;;15.17;87.92;94384.09;5011440;28;20058;-77
2023/10/26 02:44:13;;;;;;;27.17;5.38;;;;;;;14.96;87.68;94360.75;5011142;28;20034;-77
2023/10/26 02:46:39;;;;;;;31.30;6.35;;;;;;;15.14;87.48;94382.84;5019909;28;20083;-77
2023/10/26 02:49:04;;;;;;;30.50;5.35;;;;;;;14.93;87.62;94349.94;5030785;28;20033;-77
2023/10/26 02:51:29;;;;;;;25.05;4.50;;;;;;;15.22;88.43;94386.56;5024864;28;20409;-77
2023/10/26 02:53:55;;;;;;;29.35;4.97;;;;;;;15.14;87.89;94364.16;5009366;28;20535;-77
2023/10/26 02:56:21;;;;;;;26.67;6.03;;;;;;;15.27;86.93;94397.84;5009599;28;20053;-77
2023/10/26 02:58:47;;;;;;;30.25;4.63;;;;;;;15.03;86.58;94361.03;5012968;28;20053;-77
2023/10/26 03:01:13;;;;;;;49.65;6.78;;;;;;;14.79;87.13;94334.16;5056260;28;20049;-78
2023/10/26 03:03:38;;;;;;;38.15;5.47;;;;;;;14.74;87.41;94341.53;5057544;28;20033;-78
2023/10/26 03:06:04;;;;;;;24.17;5.22;;;;;;;15.30;87.23;94409.78;5040107;28;20018;-78
2023/10/26 03:08:29;;;;;;;37.50;6.75;;;;;;;15.17;86.97;94392.91;5039746;28;20056;-78
2023/10/26 03:10:54;;;;;;;37.72;6.30;;;;;;;15.27;86.69;94387.16;5039208;28;20024;-79
2023/10/26 03:13:20;;;;;;;21.65;4.60;;;;;;;15.29;86.15;94400.22;5045577;28;20031;-79
2023/10/26 03:15:46;;;;;;;27.60;5.35;;;;;;;15.11;86.96;94386.13;5059839;28;20051;-79
2023/10/26 03:18:11;;;;;;;23.27;5.50;;;;;;;15.20;87.11;94384.22;5058202;28;20048;-79
2023/10/26 03:20:37;;;;;;;24.15;5.97;;;;;;;14.98;86.45;94336.41;5059564;28;20013;-79
2023/10/26 03:23:02;;;;;;;29.45;6.22;;;;;;;15.13;86.00;94343.09;5046191;28;20024;-79
2023/10/26 03:25:28;;;;;;;25.20;5.10;;;;;;;15.10;86.22;94383.81;5038874;28;20030;-79
2023/10/26 03:27:53;;;;;;;23.60;4.78;;;;;;;14.59;85.80;94302.81;5039175;28;20022;-79
2023/10/26 03:30:20;;;;;;;25.23;5.05;;;;;;;14.99;86.26;94368.13;5039565;28;20447;-79
2023/10/26 03:32:45;;;;;;;29.70;6.18;;;;;;;15.16;86.13;94382.53;5038590;28;20025;-79
2023/10/26 03:35:11;;;;;;;32.80;5.63;;;;;;;14.17;85.67;94227.13;5061207;23;20068;-89
2023/10/26 03:37:37;;;;;;;27.73;5.43;;;;;;;15.08;86.15;94370.78;5036553;28;20458;-90
2023/10/26 03:40:05;;;;;;;30.20;5.63;;;;;;;14.62;85.44;94331.53;5035088;28;20095;-88
2023/10/26 03:42:32;;;;;;;22.02;5.32;;;;;;;15.04;85.79;94361.81;5041881;28;20051;-89
2023/10/26 03:44:57;;;;;;;28.65;6.63;;;;;;;14.82;86.14;94365.53;5028263;28;20032;-90
2023/10/26 03:47:23;;;;;;;21.02;6.25;;;;;;;14.61;86.40;94303.28;5081215;22;20045;-87
2023/10/26 03:49:52;;;;;;;20.52;5.15;;;;;;;14.45;86.43;94286.22;5069914;28;20033;-89
2023/10/26 03:52:21;;;;;;;32.40;4.93;;;;;;;15.11;86.67;94369.34;5066492;28;20457;-87
2023/10/26 03:54:47;;;;;;;36.08;6.30;;;;;;;14.72;86.75;94280.47;5073590;28;20054;-87
2023/10/26 03:57:13;;;;;;;22.88;6.88;;;;;;;14.01;86.14;94194.09;5059895;28;20065;-86
2023/10/26 03:59:39;;;;;;;30.90;6.03;;;;;;;15.17;86.42;94350.16;5051342;28;20041;-88
2023/10/26 04:02:04;;;;;;;20.50;5.55;;;;;;;14.76;86.60;94304.63;5051787;28;20028;-88
2023/10/26 04:04:30;;;;;;;27.77;5.50;;;;;;;13.54;86.18;94124.75;5064592;28;20024;-87
2023/10/26 04:06:56;;;;;;;20.92;4.95;;;;;;;15.18;86.11;94362.38;5065075;28;20099;-87
2023/10/26 04:09:22;;;;;;;22.25;6.70;;;;;;;14.55;85.66;94269.88;5062085;28;20029;-88
2023/10/26 04:11:48;;;;;;;27.52;4.75;;;;;;;14.72;85.68;94287.69;5068487;28;20055;-89
2023/10/26 04:14:13;;;;;;;28.15;5.50;;;;;;;13.16;85.84;94034.16;5064493;28;20036;-89
2023/10/26 04:16:39;;;;;;;23.45;5.50;;;;;;;12.59;85.23;93948.44;5074046;28;20013;-88
2023/10/26 04:19:06;;;;;;;28.08;5.68;;;;;;;13.31;85.36;94051.50;5074377;28;20044;-88
2023/10/26 04:21:43;;;;;;;31.45;5.65;;;;;;;15.20;86.09;94362.06;5078332;28;20111;-92
2023/10/26 04:24:11;;;;;;;21.92;7.50;;;;;;;14.18;86.14;94215.38;5061986;28;20139;-87
2023/10/26 04:26:39;;;;;;;29.05;6.03;;;;;;;14.10;85.93;94219.63;5071653;28;20033;-89
2023/10/26 04:29:06;;;;;;;24.98;5.93;;;;;;;11.43;86.00;93826.06;5051464;28;20036;-88
2023/10/26 04:31:33;;;;;;;28.17;5.50;;;;;;;13.40;85.96;94119.63;5040294;28;20215;-88
2023/10/26 04:33:58;;;;;;;23.77;6.20;;;;;;;14.91;86.46;94349.47;5043848;28;20104;-88
2023/10/26 04:36:24;;;;;;;27.65;5.70;;;;;;;13.24;86.56;94081.28;5055779;28;20052;-88
2023/10/26 04:38:50;;;;;;;20.73;6.47;;;;;;;14.16;86.29;94204.22;5054760;28;20037;-89
2023/10/26 04:41:16;;;;;;;28.00;7.20;;;;;;;13.37;86.19;94072.31;5060398;28;20039;-88
2023/10/26 04:43:41;;;;;;;21.63;5.85;;;;;;;13.60;86.10;94120.03;5054186;28;20043;-89
2023/10/26 04:46:07;;;;;;;31.92;5.60;;;;;;;13.35;86.11;94077.16;5062166;28;20044;-88
2023/10/26 04:48:33;;;;;;;26.30;5.63;;;;;;;13.63;85.63;94112.22;5054408;28;20409;-88
2023/10/26 04:50:58;;;;;;;30.05;5.43;;;;;;;15.13;85.76;94338.53;5083084;28;20056;-88
2023/10/26 04:53:24;;;;;;;25.17;5.82;;;;;;;13.32;85.40;94058.41;5062333;28;20037;-89
2023/10/26 04:55:49;;;;;;;21.83;5.75;;;;;;;15.20;86.21;94348.72;5054366;22;20381;-76
2023/10/26 04:58:15;;;;;;;23.98;7.80;;;;;;;14.78;85.72;94284.53;5038969;28;20044;-77
2023/10/26 05:00:40;;;;;;;30.55;7.43;;;;;;;14.01;85.39;94172.75;5039344;28;20032;-77
2023/10/26 05:03:05;;;;;;;36.97;10.40;;;;;;;14.61;85.72;94252.56;5021072;28;20033;-78
2023/10/26 05:05:31;;;;;;;35.35;8.77;;;;;;;15.31;85.44;94360.63;5011379;28;20662;-77
2023/10/26 05:07:57;;;;;;;38.13;8.10;;;;;;;14.89;85.19;94327.66;5014039;28;20033;-77
2023/10/26 05:10:22;;;;;;;29.98;8.23;;;;;;;14.92;85.63;94340.38;5036596;28;20044;-77
2023/10/26 05:12:48;;;;;;;24.40;8.35;;;;;;;14.84;85.49;94309.16;5039052;28;20120;-78
2023/10/26 05:15:13;;;;;;;34.22;9.45;;;;;;;14.91;85.47;94346.81;5040508;28;20082;-79
2023/10/26 05:17:39;;;;;;;29.13;7.28;;;;;;;14.96;86.30;94373.31;5036659;28;20139;-79
2023/10/26 05:20:05;;;;;;;38.00;7.03;;;;;;;15.18;86.48;94385.66;5038716;28;20028;-77
2023/10/26 05:22:34;;;;;;;31.75;7.60;;;;;;;15.26;86.50;94380.25;5014629;28;20037;-78
2023/10/26 05:25:04;;;;;;;25.15;7.32;;;;;;;15.22;85.99;94379.34;5010564;28;20163;-78
2023/10/26 05:27:30;;;;;;;24.58;8.13;;;;;;;15.17;85.52;94384.09;5016888;28;20239;-77
2023/10/26 05:29:55;;;;;;;27.15;6.38;;;;;;;14.95;85.71;94359.19;5018038;28;20029;-78
2023/10/26 05:32:21;;;;;;;32.95;7.97;;;;;;;15.29;85.99;94401.00;5034910;28;20041;-77
2023/10/26 05:34:46;;;;;;;19.20;7.55;;;;;;;15.22;86.39;94391.91;5021169;28;20033;-78
2023/10/26 05:37:12;;;;;;;40.70;10.23;;;;;;;15.17;86.84;94400.91;5034312;28;20022;-76
2023/10/26 05:39:37;;;;;;;19.27;8.32;;;;;;;14.77;86.29;94346.25;5034507;28;20048;-77
2023/10/26 05:42:04;;;;;;;35.38;8.18;;;;;;;15.25;86.07;94412.66;5027126;28;20039;-77
2023/10/26 05:44:31;;;;;;;28.63;8.23;;;;;;;15.26;86.76;94406.19;5030355;28;20631;-79
2023/10/26 05:46:57;;;;;;;26.40;8.43;;;;;;;14.91;86.29;94347.59;5034563;28;20097;-77
2023/10/26 05:49:22;;;;;;;27.15;7.78;;;;;;;15.43;87.06;94414.91;5032827;28;20131;-79
2023/10/26 05:51:48;;;;;;;30.63;8.25;;;;;;;15.52;87.22;94416.75;5032159;28;20131;-79
2023/10/26 05:54:13;;;;;;;31.88;8.90;;;;;;;15.27;87.00;94381.81;5035142;28;20558;-79
2023/10/26 05:56:38;;;;;;;30.08;8.73;;;;;;;15.63;87.43;94421.47;5035546;28;20036;-79
2023/10/26 05:59:04;;;;;;;29.30;7.88;;;;;;;15.39;87.12;94399.88;5051424;28;20777;-80
2023/10/26 06:01:33;;;;;;;33.78;10.25;;;;;;;15.41;86.16;94417.13;5041454;28;20033;-78
2023/10/26 06:03:58;;;;;;;35.45;11.80;;;;;;;15.58;86.65;94445.69;5041128;28;20212;-78
2023/10/26 06:06:24;;;;;;;34.60;11.35;;;;;;;15.50;85.31;94441.13;5043162;28;20077;-79
2023/10/26 06:08:49;;;;;;;29.00;11.35;;;;;;;15.44;85.59;94445.88;5044609;28;20403;-78
2023/10/26 06:11:16;;;;;;;33.03;10.00;;;;;;;15.33;86.00;94414.50;5038279;28;20044;-78
2023/10/26 06:13:41;;;;;;;29.15;9.70;;;;;;;15.69;85.14;94454.91;5004598;28;20876;-78
2023/10/26 06:16:07;;;;;;;42.13;11.00;;;;;;;15.67;85.01;94443.75;5053514;28;20041;-78
2023/10/26 06:18:33;;;;;;;33.72;8.25;;;;;;;15.67;84.72;94451.00;5046035;28;20040;-78
2023/10/26 06:21:00;;;;;;;32.85;11.35;;;;;;;15.35;84.04;94418.41;5043689;28;20038;-78
2023/10/26 06:23:27;;;;;;;29.27;8.73;;;;;;;15.57;84.61;94452.13;5039918;28;21588;-78
2023/10/26 06:26:04;;;;;;;38.05;10.43;;;;;;;15.57;84.79;94413.94;5053410;28;20033;-78
2023/10/26 06:28:29;;;;;;;38.53;9.38;;;;;;;15.72;85.00;94434.75;5029997;28;20091;-78
2023/10/26 06:30:55;;;;;;;34.67;9.77;;;;;;;15.83;84.54;94443.97;5040101;28;20505;-78
2023/10/26 06:33:21;;;;;;;27.10;8.68;;;;;;;15.84;84.40;94437.53;5050970;28;20051;-77
2023/10/26 06:35:48;;;;;;;30.77;10.02;;;;;;;15.68;83.79;94420.47;5053603;28;20036;-77
2023/10/26 06:38:14;;;;;;;34.80;9.98;;;;;;;15.89;83.86;94440.00;5055834;28;20028;-77
2023/10/26 06:40:39;;;;;;;45.42;10.73;;;;;;;15.73;83.60;94417.63;5062271;28;20472;-76
2023/10/26 06:43:05;;;;;;;44.70;10.65;;;;;;;15.69;83.93;94395.31;5042414;28;20036;-76
2023/10/26 06:45:30;;;;;;;50.60;11.20;;;;;;;15.71;83.58;94396.56;5056260;28;20127;-75
2023/10/26 06:47:55;;;;;;;33.60;10.00;;;;;;;16.13;83.11;94445.50;5056488;28;20031;-76
2023/10/26 06:50:23;;;;;;;33.95;10.23;;;;;;;15.95;82.88;94406.63;5035160;28;20104;-75
2023/10/26 06:52:48;;;;;;;27.67;8.50;;;;;;;15.93;83.43;94392.81;5037944;28;20127;-77
2023/10/26 06:55:17;;;;;;;39.60;9.55;;;;;;;16.04;81.30;94423.38;5034810;28;20067;-75
2023/10/26 06:57:43;;;;;;;41.70;9.57;;;;;;;16.26;82.09;94434.88;5034322;28;20101;-75
2023/10/26 07:00:09;;;;;;;37.83;8.75;;;;;;;16.32;82.21;94447.75;5040308;28;20033;-76
2023/10/26 07:02:36;;;;;;;40.95;10.63;;;;;;;16.26;82.99;94438.34;5016651;28;20094;-76
2023/10/26 07:05:03;;;;;;;42.65;10.93;;;;;;;16.25;81.47;94444.78;5007754;28;20047;-75
2023/10/26 07:07:28;;;;;;;42.78;11.00;;;;;;;16.45;81.74;94453.94;5034076;28;20495;-76
2023/10/26 07:09:54;;;;;;;32.50;9.50;;;;;;;16.46;82.19;94450.16;5015814;28;20049;-76
2023/10/26 07:12:20;;;;;;;51.20;11.43;;;;;;;16.48;82.09;94443.34;4990557;28;20036;-76
2023/10/26 07:14:45;;;;;;;45.92;11.00;;;;;;;16.52;81.36;94444.28;5020891;28;20582;-76
2023/10/26 07:17:10;;;;;;;27.33;9.02;;;;;;;16.68;81.12;94443.69;5007034;28;20075;-75
2023/10/26 07:19:36;;;;;;;28.02;8.88;;;;;;;16.74;80.75;94442.38;5002782;28;20040;-76
2023/10/26 07:22:02;;;;;;;35.17;9.57;;;;;;;16.30;80.56;94376.94;5004973;28;20233;-76
2023/10/26 07:24:29;;;;;;;39.17;9.65;;;;;;;16.81;80.50;94456.78;5013335;28;20052;-76
2023/10/26 07:26:54;;;;;;;43.65;11.27;;;;;;;16.78;80.67;94459.34;5018178;28;20047;-77
2023/10/26 07:29:20;;;;;;;41.47;10.98;;;;;;;16.63;80.45;94444.66;5024004;28;20487;-77
2023/10/26 07:31:46;;;;;;;40.00;8.15;;;;;;;16.67;79.96;94434.09;5011162;28;20047;-76
2023/10/26 07:34:11;;;;;;;35.45;8.57;;;;;;;16.96;79.17;94456.16;5028780;28;20045;-76
2023/10/26 07:36:37;;;;;;;36.15;7.97;;;;;;;16.85;79.04;94436.28;5013308;28;20052;-77
2023/10/26 07:39:03;;;;;;;36.72;8.05;;;;;;;16.72;78.64;94428.53;5014844;28;20036;-77
2023/10/26 07:41:28;;;;;;;24.58;7.13;;;;;;;16.55;78.44;94394.66;5034125;22;20126;-85
2023/10/26 07:43:54;;;;;;;33.42;6.72;;;;;;;16.91;78.03;94451.03;4994760;28;20114;-85
2023/10/26 07:46:20;;;;;;;24.27;6.78;;;;;;;16.10;79.09;94357.88;4994363;28;20053;-84
2023/10/26 07:48:45;;;;;;;33.88;9.00;;;;;;;15.34;78.70;94234.41;5014966;28;20110;-85
2023/10/26 07:51:11;;;;;;;30.60;7.57;;;;;;;15.75;78.35;94274.50;4993680;28;20037;-88
2023/10/26 07:53:37;;;;;;;37.85;8.52;;;;;;;14.06;78.59;93986.75;4995643;28;20046;-85
2023/10/26 07:58:35;;;;;;;33.97;11.00;;;;;;;16.68;79.76;94376.75;5036225;28;20055;-81
2023/10/26 08:01:07;;;;;;;45.05;9.15;;;;;;;15.93;79.94;94237.72;5020227;28;20041;-81
2023/10/26 08:03:33;;;;;;;48.75;12.07;;;;;;;16.15;80.78;94312.25;5008607;28;20226;-81
2023/10/26 08:06:00;;;;;;;46.58;11.40;;;;;;;16.80;81.94;94399.00;5043162;28;20041;-81
2023/10/26 08:08:26;;;;;;;50.38;11.10;;;;;;;16.72;81.95;94410.56;5049634;28;20029;-81
2023/10/26 08:10:52;;;;;;;36.70;10.15;;;;;;;16.73;81.88;94400.63;5042433;28;20159;-80
2023/10/26 08:13:17;;;;;;;40.85;9.60;;;;;;;16.72;81.48;94388.38;5029699;28;20076;-80
2023/10/26 08:15:43;;;;;;;36.88;10.73;;;;;;;16.61;81.86;94379.19;5052180;28;20024;-80
2023/10/26 08:18:09;;;;;;;34.22;7.50;;;;;;;16.58;78.30;94378.72;5058199;28;20068;-80
2023/10/26 08:20:34;;;;;;;35.20;7.65;;;;;;;16.93;77.73;94397.94;5053211;28;20070;-79
2023/10/26 08:23:02;;;;;;;31.92;7.15;;;;;;;17.06;77.56;94388.00;5036711;28;20322;-79
2023/10/26 08:25:27;;;;;;;27.42;7.82;;;;;;;17.10;76.54;94393.47;5030123;28;20032;-80
2023/10/26 08:27:53;;;;;;;41.45;10.40;;;;;;;17.11;77.75;94373.59;5048863;28;20431;-80
2023/10/26 08:30:18;;;;;;;36.38;12.98;;;;;;;17.30;78.83;94379.22;5032056;28;20479;-79
2023/10/26 08:32:44;;;;;;;40.38;10.23;;;;;;;17.06;80.03;94381.88;5034513;28;22065;-79
2023/10/26 08:35:09;;;;;;;39.35;10.68;;;;;;;17.07;80.58;94365.47;5034973;28;20462;-80
2023/10/26 08:37:34;;;;;;;37.10;8.80;;;;;;;17.12;81.09;94351.06;5038250;28;20028;-80
2023/10/26 08:40:00;;;;;;;38.88;7.43;;;;;;;17.26;79.81;94367.59;5034002;28;20032;-80
2023/10/26 08:42:25;;;;;;;30.90;6.82;;;;;;;17.28;79.95;94360.00;5043059;28;20239;-81
2023/10/26 08:44:54;;;;;;;24.85;7.82;;;;;;;17.51;80.35;94377.19;5022734;28;20036;-81
2023/10/26 08:47:22;;;;;;;43.75;6.30;;;;;;;17.41;80.12;94337.44;5022154;28;20041;-80
2023/10/26 08:49:49;;;;;;;22.70;6.72;;;;;;;17.68;79.79;94390.41;5016238;28;20124;-80
2023/10/26 08:52:16;;;;;;;32.13;6.57;;;;;;;17.66;79.97;94376.53;4979676;28;20048;-80
2023/10/26 08:54:41;;;;;;;32.22;6.28;;;;;;;17.70;79.34;94355.97;4999773;28;20048;-80
2023/10/26 08:57:08;;;;;;;31.25;6.30;;;;;;;17.74;78.81;94351.50;5015154;28;20049;-80
2023/10/26 08:59:34;;;;;;;27.73;5.68;;;;;;;17.99;78.05;94359.50;5014304;28;20097;-79
2023/10/26 09:01:59;;;;;;;26.92;6.28;;;;;;;17.98;77.28;94355.25;5026571;28;20078;-80
2023/10/26 09:04:25;;;;;;;22.63;5.90;;;;;;;18.21;75.94;94350.16;5032576;28;20085;-79
2023/10/26 09:06:51;;;;;;;32.92;6.80;;;;;;;18.02;74.05;94354.22;5052940;28;20111;-80
2023/10/26 09:09:17;;;;;;;28.50;6.20;;;;;;;18.11;72.42;94338.00;5026773;28;20037;-79
2023/10/26 09:11:46;;;;;;;30.05;5.07;;;;;;;18.02;65.33;94330.09;5031423;28;20495;-78
2023/10/26 09:14:20;;;;;;;18.08;4.03;;;;;;;18.16;62.63;94332.38;5027274;28;20044;-78
2023/10/26 09:16:46;;;;;;;32.13;4.72;;;;;;;18.36;62.53;94342.16;5050012;28;20179;-78
2023/10/26 09:19:14;;;;;;;26.27;3.95;;;;;;;18.35;59.76;94329.84;5033103;28;20036;-78
2023/10/26 09:21:54;;;;;;;21.70;4.85;;;;;;;18.61;61.10;94337.50;5055250;28;20434;-79
2023/10/26 09:24:19;;;;;;;21.42;3.97;;;;;;;18.75;60.27;94337.84;5028321;28;20037;-79
2023/10/26 09:26:44;;;;;;;25.65;6.38;;;;;;;18.82;61.22;94323.81;5041906;28;20041;-79
2023/10/26 09:29:10;;;;;;;16.17;3.92;;;;;;;19.03;59.81;94337.78;5044029;28;20045;-78
2023/10/26 09:31:50;;;;;;;24.60;5.78;;;;;;;19.17;58.05;94337.34;5019065;28;20040;-79
2023/10/26 09:34:16;;;;;;;21.10;4.50;;;;;;;18.76;57.01;94256.16;5011535;28;20535;-78
2023/10/26 09:36:41;;;;;;;11.30;3.28;;;;;;;19.18;53.21;94287.84;5027072;28;20163;-78
2023/10/26 09:39:08;;;;;;;22.90;4.35;;;;;;;19.39;52.91;94301.75;5033874;28;20020;-78
2023/10/26 09:41:35;;;;;;;14.73;3.35;;;;;;;19.60;51.95;94329.19;5050880;28;20056;-79
2023/10/26 09:44:00;;;;;;;11.10;2.97;;;;;;;19.34;51.43;94291.28;5029113;28;20036;-78
2023/10/26 09:46:26;;;;;;;22.02;4.03;;;;;;;19.17;52.73;94256.72;5029198;28;20032;-79
2023/10/26 09:48:52;;;;;;;13.90;2.75;;;;;;;19.75;51.73;94318.72;5037813;28;20043;-78
2023/10/26 09:51:20;;;;;;;15.93;3.50;;;;;;;19.79;51.31;94322.25;5035818;28;20086;-80
2023/10/26 09:53:47;;;;;;;14.35;3.92;;;;;;;19.75;51.01;94302.59;5055067;28;20094;-81
2023/10/26 09:56:20;;;;;;;8.48;2.63;;;;;;;19.72;51.57;94325.59;5027395;28;20059;-80
2023/10/26 09:58:46;;;;;;;13.68;3.25;;;;;;;19.64;50.93;94292.38;5041165;28;20040;-80
2023/10/26 10:01:34;;;;;;;18.15;3.70;;;;;;;19.86;50.90;94312.44;5050572;28;20048;-80
2023/10/26 10:04:00;;;;;;;14.88;3.97;;;;;;;19.85;50.92;94310.88;5037511;28;20097;-80
2023/10/26 10:06:48;;;;;;;23.75;3.88;;;;;;;19.92;51.40;94311.00;5037449;28;20028;-80
2023/10/26 10:09:16;;;;;;;17.13;3.92;;;;;;;19.65;51.34;94269.72;5034892;28;20405;-80
2023/10/26 10:11:42;;;;;;;15.85;3.58;;;;;;;19.85;49.73;94294.72;5033090;28;20040;-79
2023/10/26 10:14:07;;;;;;;15.73;3.95;;;;;;;19.61;50.37;94257.31;5044870;28;20033;-79
2023/10/26 10:16:36;;;;;;;19.80;4.45;;;;;;;19.90;50.37;94288.31;5028240;28;20056;-80
2023/10/26 10:19:21;;;;;;;18.83;4.07;;;;;;;19.94;50.98;94283.75;5059633;28;20128;-80
2023/10/26 10:21:48;;;;;;;11.35;3.60;;;;;;;19.76;50.21;94253.03;5051624;28;20056;-78
2023/10/26 10:24:42;;;;;;;11.20;3.05;;;;;;;20.03;49.97;94276.25;5044284;28;20120;-80
2023/10/26 10:27:21;;;;;;;18.80;3.45;;;;;;;20.07;50.35;94281.69;5018453;28;20044;-79
2023/10/26 10:29:46;;;;;;;14.07;3.85;;;;;;;19.85;50.18;94235.53;5034936;28;20064;-80
2023/10/26 10:32:32;;;;;;;16.02;2.60;;;;;;;19.77;49.70;94222.28;5022614;28;20040;-79
2023/10/26 10:35:01;;;;;;;13.60;2.50;;;;;;;20.21;49.04;94279.31;5031129;28;20040;-80
2023/10/26 10:37:28;;;;;;;9.98;2.65;;;;;;;19.74;49.41;94190.75;5030849;28;20211;-80
2023/10/26 10:40:22;;;;;;;21.90;3.35;;;;;;;20.07;51.59;94249.41;5010682;28;20052;-81
2023/10/26 10:42:50;;;;;;;28.55;4.13;;;;;;;19.96;52.09;94206.94;5020899;28;20240;-80
2023/10/26 10:45:18;;;;;;;13.48;3.00;;;;;;;20.04;52.49;94189.78;5018446;28;20036;-81
2023/10/26 10:47:47;;;;;;;15.48;4.35;;;;;;;20.10;51.16;94182.19;5022948;28;20105;-81
2023/10/26 10:50:26;;;;;;;15.93;2.72;;;;;;;20.35;49.03;94188.06;5015418;28;20025;-81
2023/10/26 10:52:59;;;;;;;14.63;2.55;;;;;;;20.61;48.60;94187.31;5054134;28;20025;-81
2023/10/26 10:55:26;;;;;;;21.40;2.95;;;;;;;20.90;46.80;94212.81;5045825;28;20470;-80
2023/10/26 10:58:02;;;;;;;14.48;2.95;;;;;;;21.06;45.44;94224.19;5032295;28;20041;-81
2023/10/26 11:00:45;;;;;;;15.05;3.10;;;;;;;20.80;44.00;94168.38;5048037;28;20474;-81
2023/10/26 11:03:23;;;;;;;16.48;3.38;;;;;;;21.14;44.72;94209.69;5054595;28;20584;-81
2023/10/26 11:05:49;;;;;;;13.55;3.30;;;;;;;21.30;45.02;94210.34;5044797;28;20033;-80
2023/10/26 11:08:14;;;;;;;9.90;3.13;;;;;;;21.54;44.74;94236.09;5035269;28;20040;-80
2023/10/26 11:10:40;;;;;;;11.88;3.17;;;;;;;21.55;44.38;94224.19;5011557;28;20620;-80
2023/10/26 11:13:06;;;;;;;16.77;2.92;;;;;;;21.48;45.07;94224.84;5030910;28;20088;-80
2023/10/26 11:15:33;;;;;;;12.68;2.55;;;;;;;21.32;45.91;94223.47;5043035;28;20025;-79
2023/10/26 11:18:00;;;;;;;9.35;2.50;;;;;;;21.25;46.60;94226.84;5048992;28;20475;-79
2023/10/26 11:20:39;;;;;;;10.25;2.78;;;;;;;21.37;45.37;94210.44;5029871;28;20270;-78
2023/10/26 11:23:06;;;;;;;12.70;2.72;;;;;;;21.61;44.14;94230.81;5032661;28;20036;-78
2023/10/26 11:25:32;;;;;;;11.40;2.65;;;;;;;21.79;44.32;94244.53;5037859;28;20052;-78